KINL/INL METAR and TAF weather

Enter ICAO airport designator
Station Type Date Time Source
KINL METAR 2021/01/22 06:54 UTC NOAA

KINL 220654Z AUTO 32007KT 10SM CLR M22/M24 A3006 RMK AO2 SLP215 T12221244


Station Type Date Time Source
KINL Decoded METAR 2021/01/22 06:54 UTC NOAA

FALLS INTERNATIONAL AIRPORT , MN, United States (KINL) 48-34N 093-24W 360M
Jan 22, 2021 - 01:54 AM EST / 2021.01.22 0654 UTC
Wind: from the NW (320 degrees) at 8 MPH (7 KT):0
Visibility: 10 mile(s):0
Sky conditions: clear
Temperature: -8.0 F (-22.2 C)
Windchill: -23 F (-31 C):2
Dew Point: -11.9 F (-24.4 C)
Relative Humidity: 82%
Pressure (altimeter): 30.06 in. Hg (1017 hPa)
ob: KINL 220654Z AUTO 32007KT 10SM CLR M22/M24 A3006 RMK AO2 SLP215 T12221244
cycle: 7

Station Type Date Time Source
KINL TAF 2021/01/22 06:24 UTC NOAA

TAF KINL 220523Z 2206/2306 32009KT P6SM SCT015
TEMPO 2206/2208 BKN015
FM221600 24005KT P6SM BKN050
FM222100 24006KT P6SM VCSH BKN020
FM230400 VRB03KT P6SM BKN030

Example: see airport list